Time;durP1;ratioP1;P1;durP2;ratioP2;P2;SDS_P1;SDS_P2;PMS_P1;PMS_P2;Temp;Humidity;BMP_temperature;BMP_pressure;BME280_temperature;BME280_humidity;BME280_pressure;Samples;Min_cycle;Max_cycle;Signal;HPM_P1;HPM_P2
2023/10/28 00:00:38;;;;;;;11.38;3.17;;;;;;;8.04;100.00;99292.50;4978999;28;20042;-68
2023/10/28 00:03:06;;;;;;;6.93;2.65;;;;;;;8.04;100.00;99292.50;4980296;28;20121;-68
2023/10/28 00:05:32;;;;;;;7.75;3.13;;;;;;;8.03;100.00;99291.72;4975469;28;20069;-69
2023/10/28 00:07:57;;;;;;;17.10;3.63;;;;;;;8.03;100.00;99293.50;4980631;28;20196;-68
2023/10/28 00:10:23;;;;;;;12.75;3.63;;;;;;;8.02;100.00;99287.53;4982235;28;20088;-70
2023/10/28 00:12:51;;;;;;;12.45;2.92;;;;;;;8.04;100.00;99295.09;4964774;28;20081;-70
2023/10/28 00:15:19;;;;;;;8.30;3.65;;;;;;;8.04;100.00;99290.72;4968081;28;20034;-70
2023/10/28 00:17:49;;;;;;;14.07;4.50;;;;;;;8.06;100.00;99295.72;4971575;28;20695;-70
2023/10/28 00:20:17;;;;;;;9.35;2.78;;;;;;;8.08;100.00;99301.50;4978299;28;20460;-70
2023/10/28 00:22:45;;;;;;;9.98;3.30;;;;;;;8.09;100.00;99295.38;4966959;28;20125;-70
2023/10/28 00:25:14;;;;;;;8.50;2.78;;;;;;;8.10;100.00;99302.13;4979110;28;20031;-70
2023/10/28 00:27:41;;;;;;;13.27;4.00;;;;;;;8.09;100.00;99296.16;4985425;28;20026;-70
2023/10/28 00:30:10;;;;;;;13.10;3.17;;;;;;;8.11;100.00;99296.78;4982884;28;20034;-70
2023/10/28 00:32:39;;;;;;;12.68;3.67;;;;;;;8.13;100.00;99305.16;4979603;28;20034;-70
2023/10/28 00:35:08;;;;;;;8.35;2.85;;;;;;;8.14;100.00;99296.47;4980833;28;20039;-70
2023/10/28 00:37:38;;;;;;;11.35;3.10;;;;;;;8.14;100.00;99291.28;4984598;28;20038;-71
2023/10/28 00:40:06;;;;;;;14.02;3.22;;;;;;;8.16;100.00;99298.88;4968198;28;20039;-70
2023/10/28 00:42:35;;;;;;;9.45;2.95;;;;;;;8.16;100.00;99298.88;4970422;28;20072;-70
2023/10/28 00:45:10;;;;;;;9.45;3.40;;;;;;;8.16;100.00;99296.28;4978710;28;20120;-70
2023/10/28 00:47:38;;;;;;;17.85;3.30;;;;;;;8.17;100.00;99296.13;4978424;28;20052;-70
2023/10/28 00:50:09;;;;;;;9.20;3.22;;;;;;;8.18;100.00;99295.13;4982991;28;20484;-70
2023/10/28 00:52:36;;;;;;;8.15;2.92;;;;;;;8.18;100.00;99294.31;4979716;28;20065;-70
2023/10/28 00:55:02;;;;;;;9.38;2.95;;;;;;;8.19;100.00;99298.50;4977209;28;20042;-70
2023/10/28 00:57:31;;;;;;;13.45;3.00;;;;;;;8.20;100.00;99305.28;4964077;28;20034;-70
2023/10/28 00:59:59;;;;;;;16.23;3.25;;;;;;;8.23;100.00;99302.34;4963912;28;20048;-71
2023/10/28 01:02:24;;;;;;;10.98;3.50;;;;;;;8.30;100.00;99297.25;4964930;28;20065;-71
2023/10/28 01:04:51;;;;;;;12.38;3.83;;;;;;;8.28;100.00;99300.03;4984261;28;20137;-70
2023/10/28 01:07:17;;;;;;;12.43;2.97;;;;;;;8.26;100.00;99309.72;4974591;28;20113;-70
2023/10/28 01:09:47;;;;;;;7.78;3.13;;;;;;;8.28;100.00;99300.03;4969636;28;20117;-70
2023/10/28 01:12:13;;;;;;;7.95;2.83;;;;;;;8.29;100.00;99300.84;4947671;28;20456;-70
2023/10/28 01:14:40;;;;;;;11.25;3.60;;;;;;;8.29;100.00;99300.84;4963333;28;20027;-70
2023/10/28 01:17:07;;;;;;;17.35;3.47;;;;;;;8.29;100.00;99306.00;4963392;28;20030;-70
2023/10/28 01:19:34;;;;;;;13.75;3.40;;;;;;;8.29;100.00;99308.59;4967131;28;20026;-70
2023/10/28 01:22:21;;;;;;;12.23;3.00;;;;;;;8.29;100.00;99304.22;4983335;28;20134;-70
2023/10/28 01:24:49;;;;;;;13.63;2.75;;;;;;;8.30;100.00;99305.81;4966629;28;20041;-70
2023/10/28 01:27:17;;;;;;;9.35;3.08;;;;;;;8.32;100.00;99313.38;4967969;28;20046;-70
2023/10/28 01:29:42;;;;;;;9.45;2.72;;;;;;;8.33;100.00;99315.00;4982948;28;20026;-70
2023/10/28 01:32:08;;;;;;;10.68;2.92;;;;;;;8.33;100.00;99313.22;4966787;28;20533;-70
2023/10/28 01:34:53;;;;;;;9.68;2.60;;;;;;;8.34;100.00;99320.00;4984899;28;20609;-70
2023/10/28 01:37:19;;;;;;;8.75;2.72;;;;;;;8.34;100.00;99317.41;4985616;28;20069;-70
2023/10/28 01:39:48;;;;;;;8.23;3.28;;;;;;;8.41;100.00;99319.28;4968544;28;20038;-70
2023/10/28 01:42:18;;;;;;;9.77;2.78;;;;;;;8.39;100.00;99320.25;4968683;28;20034;-70
2023/10/28 01:44:45;;;;;;;12.45;3.25;;;;;;;8.40;100.00;99318.47;4969250;28;20497;-70
2023/10/28 01:47:11;;;;;;;18.73;3.38;;;;;;;8.39;100.00;99322.03;4967290;28;20119;-70
2023/10/28 01:49:40;;;;;;;9.32;3.25;;;;;;;8.41;100.00;99322.66;4982025;28;20034;-71
2023/10/28 01:52:09;;;;;;;6.88;2.67;;;;;;;8.39;100.00;99317.66;4982804;28;20035;-70
2023/10/28 01:54:35;;;;;;;13.05;3.22;;;;;;;8.41;100.00;99314.09;4982836;28;20042;-70
2023/10/28 01:57:05;;;;;;;11.25;3.08;;;;;;;8.42;100.00;99315.72;4981411;28;20034;-70
2023/10/28 01:59:35;;;;;;;10.18;3.03;;;;;;;8.44;100.00;99312.00;4954307;28;20022;-70
2023/10/28 02:02:02;;;;;;;13.18;3.08;;;;;;;8.43;100.00;99310.38;4983459;28;20034;-70
2023/10/28 02:04:31;;;;;;;10.65;2.58;;;;;;;8.41;100.00;99314.91;4967862;28;20728;-70
2023/10/28 02:07:00;;;;;;;5.03;2.08;;;;;;;8.44;100.00;99316.34;4965693;28;20030;-70
2023/10/28 02:09:27;;;;;;;6.72;2.25;;;;;;;8.43;100.00;99318.13;4986712;28;20173;-70
2023/10/28 02:11:53;;;;;;;8.40;2.50;;;;;;;8.43;100.00;99317.34;4968746;28;20579;-70
2023/10/28 02:14:20;;;;;;;5.30;2.03;;;;;;;8.44;100.00;99314.59;4986392;28;20048;-70
2023/10/28 02:16:45;;;;;;;7.18;2.58;;;;;;;8.46;100.00;99317.00;4968327;28;20046;-70
2023/10/28 02:19:11;;;;;;;10.02;2.45;;;;;;;8.48;100.00;99315.03;4967228;28;20057;-70
2023/10/28 02:21:37;;;;;;;8.80;2.22;;;;;;;8.49;100.00;99321.78;4967570;28;20452;-70
2023/10/28 02:24:03;;;;;;;4.45;2.05;;;;;;;8.48;100.00;99317.63;4985336;28;20125;-70
2023/10/28 02:26:30;;;;;;;8.18;2.30;;;;;;;8.47;100.00;99319.38;4968767;28;20030;-71
2023/10/28 02:28:55;;;;;;;8.05;2.08;;;;;;;8.45;100.00;99318.75;4973909;28;20085;-70
2023/10/28 02:31:21;;;;;;;7.32;1.90;;;;;;;8.46;100.00;99317.78;4964674;28;20469;-70
2023/10/28 02:33:46;;;;;;;7.15;2.05;;;;;;;8.47;100.00;99323.75;4972374;28;20049;-70
2023/10/28 02:36:12;;;;;;;7.53;3.40;;;;;;;8.45;100.00;99308.44;4986536;28;20034;-70
2023/10/28 02:38:38;;;;;;;7.65;1.98;;;;;;;8.45;100.00;99323.94;4968612;28;20176;-71
2023/10/28 02:41:07;;;;;;;3.55;1.70;;;;;;;8.48;100.00;99317.63;4984769;28;20454;-70
2023/10/28 02:43:38;;;;;;;5.03;1.92;;;;;;;8.46;100.00;99322.16;4985093;28;21570;-70
2023/10/28 02:46:03;;;;;;;9.55;1.85;;;;;;;8.54;100.00;99316.91;4980238;28;20046;-70
2023/10/28 02:48:30;;;;;;;3.70;1.55;;;;;;;8.64;100.00;99309.66;4971902;28;20034;-70
2023/10/28 02:51:02;;;;;;;7.68;1.17;;;;;;;8.72;100.00;99311.34;4984108;28;20046;-70
2023/10/28 02:53:27;;;;;;;8.02;1.55;;;;;;;8.80;100.00;99308.69;4986100;28;20038;-71
2023/10/28 02:55:53;;;;;;;4.82;0.90;;;;;;;8.83;100.00;99310.09;4986917;28;20045;-70
2023/10/28 02:58:19;;;;;;;3.05;1.13;;;;;;;8.85;100.00;99308.94;4967707;28;20026;-70
2023/10/28 03:00:44;;;;;;;3.35;1.65;;;;;;;8.81;100.00;99306.91;4982193;28;20497;-70
2023/10/28 03:03:10;;;;;;;6.30;1.13;;;;;;;8.91;100.00;99309.97;4972822;28;20035;-70
2023/10/28 03:05:36;;;;;;;3.70;1.10;;;;;;;8.99;100.00;99302.16;4970082;28;20042;-71
2023/10/28 03:08:02;;;;;;;6.40;1.08;;;;;;;8.99;100.00;99302.16;4959805;28;20038;-70
2023/10/28 03:10:28;;;;;;;2.30;1.05;;;;;;;9.05;100.00;99308.38;4954045;28;20049;-70
2023/10/28 03:12:53;;;;;;;4.80;1.13;;;;;;;8.95;100.00;99298.31;4968029;28;20030;-70
2023/10/28 03:15:19;;;;;;;3.55;0.90;;;;;;;8.95;100.00;99304.28;4955041;28;20621;-70
2023/10/28 03:17:44;;;;;;;5.40;1.15;;;;;;;8.92;100.00;99303.84;4985023;28;20037;-70
2023/10/28 03:20:11;;;;;;;4.85;1.33;;;;;;;9.05;100.00;99304.00;4968470;28;20390;-71
2023/10/28 03:22:37;;;;;;;2.55;0.90;;;;;;;8.95;100.00;99298.31;4968489;28;20200;-70
2023/10/28 03:25:04;;;;;;;2.58;1.20;;;;;;;8.96;100.00;99299.91;4967744;28;20022;-71
2023/10/28 03:27:30;;;;;;;6.43;1.30;;;;;;;8.93;100.00;99300.28;4986644;28;20038;-70
2023/10/28 03:29:56;;;;;;;7.82;2.10;;;;;;;8.94;100.00;99307.84;4967738;28;20058;-70
2023/10/28 03:32:21;;;;;;;6.28;1.60;;;;;;;9.00;100.00;99301.16;4954190;28;20248;-70
2023/10/28 03:34:47;;;;;;;9.57;2.20;;;;;;;9.02;100.00;99299.19;4966469;28;20041;-70
2023/10/28 03:37:13;;;;;;;8.52;2.10;;;;;;;8.91;100.00;99303.06;4984442;28;20038;-70
2023/10/28 03:39:38;;;;;;;6.82;2.15;;;;;;;8.86;100.00;99305.38;4970195;28;20029;-70
2023/10/28 03:42:07;;;;;;;8.45;2.78;;;;;;;8.95;100.00;99303.50;4982638;28;20038;-70
2023/10/28 03:44:33;;;;;;;7.65;2.25;;;;;;;9.00;100.00;99293.38;4986336;28;20501;-70
2023/10/28 03:46:59;;;;;;;13.80;2.60;;;;;;;8.98;100.00;99299.72;4985193;28;20528;-71
2023/10/28 03:49:25;;;;;;;5.00;1.95;;;;;;;8.93;100.00;99302.88;4970278;28;20038;-71
2023/10/28 03:51:50;;;;;;;5.10;1.98;;;;;;;8.82;100.00;99296.38;4972622;28;20030;-70
2023/10/28 03:54:15;;;;;;;9.15;2.22;;;;;;;8.79;100.00;99298.53;4986061;28;20223;-70
2023/10/28 03:56:41;;;;;;;4.85;1.65;;;;;;;8.72;100.00;99306.19;4983039;28;20038;-71
2023/10/28 03:59:06;;;;;;;4.10;1.48;;;;;;;8.83;100.00;99302.34;4991240;28;20670;-72
2023/10/28 04:01:32;;;;;;;3.00;1.25;;;;;;;8.76;100.00;99300.50;4973352;28;20034;-70
2023/10/28 04:03:57;;;;;;;2.35;0.98;;;;;;;8.76;100.00;99310.03;4983712;28;20528;-70
2023/10/28 04:06:23;;;;;;;2.97;1.35;;;;;;;8.76;100.00;99307.44;4990665;28;20529;-70
2023/10/28 04:08:48;;;;;;;3.35;1.17;;;;;;;8.80;100.00;99302.69;4986393;28;20038;-71
2023/10/28 04:11:14;;;;;;;2.63;0.93;;;;;;;8.69;100.00;99302.19;4986607;28;20039;-70
2023/10/28 04:13:39;;;;;;;2.90;0.93;;;;;;;8.67;100.00;99296.41;4991633;28;20381;-70
2023/10/28 04:16:05;;;;;;;3.75;1.17;;;;;;;8.70;100.00;99297.81;4982492;28;20035;-71
2023/10/28 04:18:31;;;;;;;2.33;1.02;;;;;;;8.71;100.00;99302.81;4968673;28;20030;-72
2023/10/28 04:20:56;;;;;;;7.13;1.23;;;;;;;8.65;100.00;99295.78;4984639;28;20035;-71
2023/10/28 04:23:22;;;;;;;5.05;1.27;;;;;;;8.61;100.00;99304.88;4988891;28;20092;-70
2023/10/28 04:25:48;;;;;;;3.70;1.50;;;;;;;8.73;100.00;99295.66;4985498;28;20058;-71
2023/10/28 04:28:14;;;;;;;6.25;1.38;;;;;;;8.67;100.00;99298.97;4969456;28;20665;-71
2023/10/28 04:30:39;;;;;;;3.28;1.27;;;;;;;8.74;100.00;99296.50;4980989;28;21253;-71
2023/10/28 04:33:05;;;;;;;4.32;1.30;;;;;;;8.68;100.00;99281.69;4968865;28;20100;-71
2023/10/28 04:35:30;;;;;;;4.15;1.45;;;;;;;8.65;100.00;99293.19;4980520;28;20509;-71
2023/10/28 04:37:56;;;;;;;4.30;1.20;;;;;;;8.73;100.00;99289.72;4967269;28;20031;-71
2023/10/28 04:40:22;;;;;;;1.88;1.00;;;;;;;8.66;100.00;99286.22;4983410;28;20046;-71
2023/10/28 04:42:47;;;;;;;3.42;1.17;;;;;;;8.62;100.00;99290.16;4988286;28;20401;-70
2023/10/28 04:45:13;;;;;;;10.15;1.17;;;;;;;8.66;100.00;99283.66;4956300;28;20467;-70
2023/10/28 04:47:39;;;;;;;5.97;1.30;;;;;;;8.61;100.00;99285.97;4986345;28;20034;-71
2023/10/28 04:50:05;;;;;;;7.90;1.20;;;;;;;8.62;100.00;99288.38;4988298;28;20031;-70
2023/10/28 04:52:31;;;;;;;6.70;1.10;;;;;;;8.69;100.00;99283.31;4987124;28;20108;-70
2023/10/28 04:54:58;;;;;;;6.05;1.00;;;;;;;8.71;100.00;99281.34;4991273;28;20034;-71
2023/10/28 04:57:24;;;;;;;6.63;1.17;;;;;;;8.76;100.00;99272.06;4991150;28;20058;-71
2023/10/28 04:59:49;;;;;;;4.13;1.25;;;;;;;8.74;100.00;99283.56;4976386;28;20045;-70
2023/10/28 05:02:15;;;;;;;6.05;1.20;;;;;;;8.73;100.00;99269.81;4972167;28;20529;-70
2023/10/28 05:04:41;;;;;;;5.32;1.10;;;;;;;8.70;100.00;99272.78;4990565;28;20096;-70
2023/10/28 05:07:06;;;;;;;3.40;1.10;;;;;;;8.68;100.00;99273.94;4955638;28;20050;-71
2023/10/28 05:09:32;;;;;;;2.88;0.98;;;;;;;8.77;100.00;99267.69;4987972;28;20038;-71
2023/10/28 05:11:58;;;;;;;7.90;1.50;;;;;;;8.82;100.00;99267.16;4988217;28;20407;-71
2023/10/28 05:14:24;;;;;;;4.05;1.40;;;;;;;8.73;100.00;99271.63;4974677;28;20042;-70
2023/10/28 05:16:54;;;;;;;2.97;1.30;;;;;;;8.66;100.00;99270.72;4988213;28;20046;-72
2023/10/28 05:19:22;;;;;;;3.13;1.08;;;;;;;8.87;100.00;99269.97;4991677;28;20084;-69
2023/10/28 05:21:47;;;;;;;4.28;1.08;;;;;;;8.93;100.00;99264.88;4988979;28;20412;-70
2023/10/28 05:24:13;;;;;;;4.32;1.30;;;;;;;8.83;100.00;99268.75;4965816;28;20038;-70
2023/10/28 05:26:39;;;;;;;3.33;1.05;;;;;;;8.81;100.00;99266.34;4987898;28;20030;-70
2023/10/28 05:29:04;;;;;;;3.80;1.30;;;;;;;8.81;100.00;99270.72;4987780;28;20038;-71
2023/10/28 05:31:29;;;;;;;3.90;1.20;;;;;;;8.82;100.00;99272.31;4991567;28;20042;-70
2023/10/28 05:33:55;;;;;;;4.63;1.15;;;;;;;8.87;100.00;99277.72;4974245;28;20401;-70
2023/10/28 05:36:22;;;;;;;6.95;1.00;;;;;;;8.82;100.00;99278.28;4973639;28;20054;-70
2023/10/28 05:38:47;;;;;;;4.30;1.20;;;;;;;8.84;100.00;99281.50;4975774;28;20034;-71
2023/10/28 05:41:12;;;;;;;9.50;1.20;;;;;;;8.82;100.00;99280.88;4991461;28;20100;-70
2023/10/28 05:43:38;;;;;;;5.65;1.20;;;;;;;8.90;100.00;99279.97;4956344;28;20042;-70
2023/10/28 05:46:04;;;;;;;8.68;1.15;;;;;;;8.93;100.00;99274.44;4984865;28;20037;-70
2023/10/28 05:48:29;;;;;;;5.28;1.05;;;;;;;8.94;100.00;99284.56;4985765;28;20511;-70
2023/10/28 05:50:58;;;;;;;6.07;1.40;;;;;;;8.89;100.00;99283.53;4970136;28;20034;-70
2023/10/28 05:53:23;;;;;;;5.22;1.70;;;;;;;8.87;100.00;99285.47;4989720;28;20484;-70
2023/10/28 05:55:50;;;;;;;5.28;1.30;;;;;;;8.91;100.00;99297.88;4972952;28;20042;-70
2023/10/28 05:58:15;;;;;;;9.23;1.30;;;;;;;8.94;100.00;99291.53;4973017;28;20474;-70
2023/10/28 06:00:41;;;;;;;6.22;1.50;;;;;;;8.95;100.00;99287.97;4969096;28;20093;-71
2023/10/28 06:03:08;;;;;;;3.03;1.38;;;;;;;8.96;100.00;99281.81;4970379;28;20034;-71
2023/10/28 06:05:34;;;;;;;8.00;1.23;;;;;;;8.86;100.00;99291.66;4986037;28;20505;-70
2023/10/28 06:07:59;;;;;;;4.30;1.30;;;;;;;8.87;100.00;99286.31;4973609;28;20033;-70
2023/10/28 06:10:25;;;;;;;8.60;1.50;;;;;;;8.88;100.00;99294.84;4971495;28;20042;-70
2023/10/28 06:12:51;;;;;;;7.85;1.30;;;;;;;8.85;100.00;99290.84;4958987;28;20083;-72
2023/10/28 06:15:17;;;;;;;5.97;1.08;;;;;;;8.94;100.00;99297.50;4987138;28;20125;-70
2023/10/28 06:17:42;;;;;;;4.10;1.73;;;;;;;8.94;100.00;99292.34;4972725;28;20030;-70
2023/10/28 06:20:08;;;;;;;4.07;1.10;;;;;;;9.04;100.00;99293.81;4970749;28;20049;-70
2023/10/28 06:22:34;;;;;;;5.50;1.15;;;;;;;9.03;100.00;99284.47;4988273;28;20031;-70
2023/10/28 06:25:00;;;;;;;4.05;0.93;;;;;;;8.98;100.00;99286.81;4972463;28;20049;-70
2023/10/28 06:27:25;;;;;;;2.97;1.13;;;;;;;9.02;100.00;99296.59;4974442;28;20034;-70
2023/10/28 06:29:51;;;;;;;8.25;1.60;;;;;;;9.00;100.00;99295.19;4953398;28;20037;-70
2023/10/28 06:32:16;;;;;;;1.50;0.73;;;;;;;8.91;100.00;99299.66;4968814;28;20112;-70
2023/10/28 06:34:42;;;;;;;5.70;1.20;;;;;;;8.86;100.00;99297.63;4991182;28;20034;-70
2023/10/28 06:37:07;;;;;;;8.23;2.60;;;;;;;8.94;100.00;99301.88;4971736;28;20042;-71
2023/10/28 06:39:34;;;;;;;9.00;1.05;;;;;;;8.98;100.00;99300.53;4988459;28;20033;-70
2023/10/28 06:42:01;;;;;;;14.82;2.25;;;;;;;9.06;100.00;99308.19;4956401;28;20048;-70
2023/10/28 06:44:27;;;;;;;3.83;0.90;;;;;;;9.11;100.00;99302.47;4971218;28;20042;-70
2023/10/28 06:46:53;;;;;;;4.22;0.80;;;;;;;9.15;100.00;99307.09;4971743;28;20030;-70
2023/10/28 06:49:18;;;;;;;2.25;0.85;;;;;;;9.09;100.00;99304.44;4989801;28;20041;-70
2023/10/28 06:51:44;;;;;;;4.57;1.02;;;;;;;9.11;100.00;99308.44;4988354;28;20045;-70
2023/10/28 06:54:10;;;;;;;3.70;0.98;;;;;;;9.10;100.00;99312.00;4983552;28;20035;-71
2023/10/28 06:56:36;;;;;;;3.30;1.15;;;;;;;9.20;100.00;99313.50;4984797;28;20449;-70
2023/10/28 06:59:01;;;;;;;5.60;1.25;;;;;;;9.21;100.00;99305.56;4972431;28;20700;-70
2023/10/28 07:01:27;;;;;;;2.65;0.95;;;;;;;9.22;100.00;99314.13;4969935;28;20041;-70
2023/10/28 07:03:52;;;;;;;3.85;1.10;;;;;;;9.19;100.00;99315.28;4969799;28;20055;-71
2023/10/28 07:06:18;;;;;;;4.63;0.90;;;;;;;9.14;100.00;99309.88;4982465;28;20046;-70
2023/10/28 07:08:46;;;;;;;7.40;1.25;;;;;;;9.16;100.00;99323.41;4988959;28;20031;-70
2023/10/28 07:11:13;;;;;;;5.60;1.05;;;;;;;9.16;100.00;99311.28;4968636;28;20125;-70
2023/10/28 07:13:39;;;;;;;7.70;0.93;;;;;;;9.26;100.00;99318.72;4985936;28;20038;-71
2023/10/28 07:16:05;;;;;;;4.35;1.10;;;;;;;9.23;100.00;99323.47;4982727;28;20062;-70
2023/10/28 07:18:31;;;;;;;3.75;0.82;;;;;;;9.27;100.00;99319.56;4985035;28;20488;-70
2023/10/28 07:20:57;;;;;;;5.45;1.08;;;;;;;9.31;100.00;99315.63;4987269;28;20133;-70
2023/10/28 07:23:26;;;;;;;2.58;1.08;;;;;;;9.39;100.00;99318.06;4989236;28;20030;-70
2023/10/28 07:25:56;;;;;;;2.75;1.00;;;;;;;9.50;100.00;99327.16;4986363;28;20046;-72
2023/10/28 07:28:22;;;;;;;1.52;0.63;;;;;;;9.49;100.00;99331.53;4967047;28;20465;-72
2023/10/28 07:30:50;;;;;;;5.75;1.80;;;;;;;9.59;100.00;99330.38;4983525;28;20057;-70
2023/10/28 07:33:19;;;;;;;8.60;3.55;;;;;;;9.66;100.00;99331.25;4962320;28;20031;-70
2023/10/28 07:35:46;;;;;;;2.72;1.48;;;;;;;9.60;100.00;99332.00;4988249;28;20052;-70
2023/10/28 07:38:12;;;;;;;7.03;3.03;;;;;;;9.58;100.00;99334.78;4970252;28;20031;-70
2023/10/28 07:40:39;;;;;;;8.20;3.50;;;;;;;9.62;100.00;99337.78;4986830;28;20037;-70
2023/10/28 07:43:05;;;;;;;8.35;2.88;;;;;;;9.60;100.00;99339.78;4986189;28;20085;-70
2023/10/28 07:45:31;;;;;;;9.98;2.30;;;;;;;9.66;100.00;99342.44;4979864;28;20038;-70
2023/10/28 07:47:56;;;;;;;4.03;1.52;;;;;;;9.77;100.00;99333.34;4980513;28;20041;-70
2023/10/28 07:50:22;;;;;;;12.57;2.50;;;;;;;9.80;100.00;99337.38;4981638;28;20038;-70
2023/10/28 07:52:47;;;;;;;3.30;1.10;;;;;;;9.82;100.00;99346.53;4986533;28;20030;-70
2023/10/28 07:55:13;;;;;;;6.93;1.30;;;;;;;9.86;100.00;99347.75;4982928;28;20039;-70
2023/10/28 07:57:38;;;;;;;2.28;0.85;;;;;;;9.84;100.00;99349.75;4986488;28;20089;-70
2023/10/28 08:00:05;;;;;;;2.17;0.80;;;;;;;9.80;100.00;99355.50;4969178;28;20034;-70
2023/10/28 08:02:39;;;;;;;2.63;0.80;;;;;;;9.84;100.00;99359.31;4984662;28;20065;-70
2023/10/28 08:05:05;;;;;;;3.45;1.60;;;;;;;9.82;100.00;99348.34;4986192;28;20073;-71
2023/10/28 08:07:31;;;;;;;1.98;0.95;;;;;;;9.74;100.00;99357.03;4965299;28;20480;-70
2023/10/28 08:09:57;;;;;;;6.60;1.20;;;;;;;9.72;100.00;99359.81;4991562;28;20522;-70
2023/10/28 08:12:25;;;;;;;6.65;1.25;;;;;;;9.84;100.00;99361.91;4986476;28;20899;-70
2023/10/28 08:14:51;;;;;;;5.35;1.00;;;;;;;9.90;100.00;99358.56;4970985;28;20625;-70
2023/10/28 08:17:16;;;;;;;4.65;1.02;;;;;;;9.94;100.00;99368.38;4965859;28;20126;-70
2023/10/28 08:19:42;;;;;;;4.13;1.10;;;;;;;10.00;100.00;99358.22;4970504;28;20476;-70
2023/10/28 08:22:07;;;;;;;3.17;0.85;;;;;;;10.06;100.00;99360.88;4978082;28;20134;-70
2023/10/28 08:24:33;;;;;;;3.40;1.10;;;;;;;10.10;100.00;99367.28;4986585;28;20034;-70
2023/10/28 08:26:58;;;;;;;6.50;1.08;;;;;;;10.30;100.00;99374.41;4980123;28;20026;-71
2023/10/28 08:29:24;;;;;;;4.18;1.30;;;;;;;10.22;100.00;99377.13;4989125;28;20892;-70
2023/10/28 08:31:50;;;;;;;4.28;1.10;;;;;;;10.24;100.00;99373.34;4977723;28;20512;-71
2023/10/28 08:34:16;;;;;;;2.83;1.25;;;;;;;10.27;100.00;99385.16;4975267;28;20057;-70
2023/10/28 08:36:42;;;;;;;9.18;1.42;;;;;;;10.35;100.00;99379.84;4978087;28;20398;-70
2023/10/28 08:39:08;;;;;;;4.50;1.25;;;;;;;10.28;100.00;99387.56;4991186;28;20053;-71
2023/10/28 08:41:35;;;;;;;10.57;1.40;;;;;;;10.31;100.00;99389.78;4985042;28;20460;-70
2023/10/28 08:44:06;;;;;;;5.15;1.25;;;;;;;10.35;100.00;99387.63;4972656;28;20042;-70
2023/10/28 08:46:32;;;;;;;3.10;1.13;;;;;;;10.38;100.00;99384.66;4972287;28;20032;-70
2023/10/28 08:49:01;;;;;;;6.32;0.90;;;;;;;10.41;100.00;99393.84;4976321;28;20037;-70
2023/10/28 08:51:27;;;;;;;3.13;1.20;;;;;;;10.40;100.00;99403.41;4988207;28;20049;-71
2023/10/28 08:53:56;;;;;;;3.70;0.85;;;;;;;10.41;100.00;99402.41;4986902;28;20397;-70
2023/10/28 08:56:25;;;;;;;5.68;1.50;;;;;;;10.44;100.00;99404.63;4971722;28;20038;-71
2023/10/28 08:58:53;;;;;;;3.13;1.02;;;;;;;10.42;100.00;99404.03;4984222;28;20064;-70
2023/10/28 09:01:28;;;;;;;4.60;1.05;;;;;;;10.42;100.00;99405.81;4984546;28;20031;-70
2023/10/28 09:04:00;;;;;;;1.90;0.82;;;;;;;10.42;100.00;99416.19;4988453;28;20030;-71
2023/10/28 09:06:26;;;;;;;2.15;1.10;;;;;;;10.43;100.00;99413.38;4988319;28;20612;-71
2023/10/28 09:08:52;;;;;;;9.75;1.45;;;;;;;10.52;100.00;99414.84;4989461;28;20038;-70
2023/10/28 09:11:17;;;;;;;8.35;1.38;;;;;;;10.51;100.00;99417.66;4988551;28;20121;-70
2023/10/28 09:13:46;;;;;;;6.80;1.05;;;;;;;10.64;100.00;99417.75;4989533;28;20049;-70
2023/10/28 09:16:14;;;;;;;5.93;1.25;;;;;;;10.63;100.00;99425.69;4984239;28;20045;-70
2023/10/28 09:18:40;;;;;;;4.20;0.98;;;;;;;10.74;100.00;99421.75;4975871;28;20493;-70
2023/10/28 09:21:10;;;;;;;3.30;0.98;;;;;;;10.66;100.00;99433.91;4974300;28;20034;-70
2023/10/28 09:23:36;;;;;;;2.10;1.00;;;;;;;10.64;100.00;99422.94;4975048;28;20053;-70
2023/10/28 09:26:02;;;;;;;5.05;1.13;;;;;;;10.67;100.00;99429.50;4975700;28;20050;-71
2023/10/28 09:28:28;;;;;;;3.85;1.15;;;;;;;10.91;100.00;99433.44;4971694;28;20117;-71
2023/10/28 09:30:53;;;;;;;3.50;1.13;;;;;;;10.94;100.00;99427.84;4975480;28;20145;-70
2023/10/28 09:33:19;;;;;;;5.15;0.82;;;;;;;10.93;100.00;99435.84;4970264;28;20042;-70
2023/10/28 09:35:46;;;;;;;4.25;1.02;;;;;;;10.99;100.00;99429.91;4989595;28;20034;-71
2023/10/28 09:38:11;;;;;;;7.68;1.35;;;;;;;11.06;100.00;99438.53;4993158;28;20030;-70
2023/10/28 09:40:37;;;;;;;3.30;1.17;;;;;;;11.01;100.00;99439.06;4967500;28;20475;-70
2023/10/28 09:43:04;;;;;;;7.32;1.05;;;;;;;11.02;100.00;99430.31;4988484;28;20046;-70
2023/10/28 09:45:30;;;;;;;3.75;1.40;;;;;;;11.19;100.00;99425.59;4976057;28;20041;-70
2023/10/28 09:47:57;;;;;;;5.35;1.05;;;;;;;11.33;100.00;99426.44;4986306;28;20065;-70
2023/10/28 09:50:25;;;;;;;4.68;0.90;;;;;;;11.61;100.00;99423.75;4988654;28;20062;-70
2023/10/28 09:52:58;;;;;;;4.22;0.93;;;;;;;11.77;100.00;99424.38;4970572;28;20393;-70
2023/10/28 09:55:28;;;;;;;;;;;;;;;11.81;100.00;99421.19;4967216;28;20033;-71
2023/10/28 09:58:04;;;;;;;3.97;0.77;;;;;;;11.91;100.00;99425.25;4986812;28;20303;-70
2023/10/28 10:00:31;;;;;;;3.33;0.82;;;;;;;11.89;100.00;99422.81;4969414;28;20061;-71
2023/10/28 10:03:07;;;;;;;4.95;0.98;;;;;;;11.85;100.00;99419.00;4987634;28;20064;-70
2023/10/28 10:05:45;;;;;;;7.78;1.13;;;;;;;11.87;100.00;99414.41;4971103;28;20065;-71
2023/10/28 10:08:24;;;;;;;5.28;0.82;;;;;;;11.87;100.00;99417.81;4970489;28;20034;-70
2023/10/28 10:10:51;;;;;;;9.05;1.10;;;;;;;11.88;100.00;99416.81;4982994;28;20042;-70
2023/10/28 10:13:17;;;;;;;2.35;0.70;;;;;;;12.02;100.00;99419.47;4984920;28;20048;-71
2023/10/28 10:15:55;;;;;;;3.42;1.02;;;;;;;12.12;100.00;99426.84;4950556;28;20065;-71
2023/10/28 10:18:37;;;;;;;4.93;0.90;;;;;;;12.24;100.00;99430.44;4982385;28;20092;-70
2023/10/28 10:21:15;;;;;;;7.53;0.90;;;;;;;12.42;100.00;99424.66;4980687;28;20042;-70
2023/10/28 10:23:46;;;;;;;3.70;0.88;;;;;;;12.53;100.00;99426.66;4968908;28;20042;-71
2023/10/28 10:26:31;;;;;;;4.90;1.35;;;;;;;12.60;100.00;99429.22;4979143;28;20035;-71
2023/10/28 10:29:02;;;;;;;6.57;1.15;;;;;;;12.74;100.00;99427.41;4966639;28;20259;-71
2023/10/28 10:31:37;;;;;;;5.55;0.80;;;;;;;12.90;100.00;99426.97;4963400;28;20034;-70
2023/10/28 10:34:07;;;;;;;6.65;1.33;;;;;;;13.02;100.00;99419.34;4966145;28;20038;-71
2023/10/28 10:36:43;;;;;;;8.43;1.15;;;;;;;12.97;100.00;99419.94;4977522;28;20107;-72
2023/10/28 10:39:17;;;;;;;2.35;0.95;;;;;;;12.77;100.00;99414.81;4950210;28;20038;-71
2023/10/28 10:41:49;;;;;;;9.18;1.38;;;;;;;12.81;100.00;99405.59;4966264;28;20346;-71
2023/10/28 10:44:21;;;;;;;7.88;1.60;;;;;;;12.77;100.00;99412.22;4978785;28;20034;-71
2023/10/28 10:46:52;;;;;;;5.15;1.05;;;;;;;12.78;99.18;99410.41;4961447;28;20034;-72
2023/10/28 10:49:18;;;;;;;7.50;1.40;;;;;;;12.91;98.82;99415.56;4980285;28;20037;-72
2023/10/28 10:51:46;;;;;;;3.30;1.00;;;;;;;12.96;95.74;99405.34;4979529;28;20035;-71
2023/10/28 10:54:16;;;;;;;16.63;2.03;;;;;;;13.08;95.72;99405.50;4968328;28;20125;-72
2023/10/28 10:56:41;;;;;;;12.05;1.38;;;;;;;13.31;91.87;99409.44;4966492;28;20038;-71
2023/10/28 10:59:07;;;;;;;6.60;1.40;;;;;;;13.42;91.60;99400.97;4967984;28;20113;-71
2023/10/28 11:01:32;;;;;;;5.65;1.00;;;;;;;13.43;92.38;99403.38;4987114;28;20042;-71
2023/10/28 11:03:58;;;;;;;9.32;1.00;;;;;;;13.55;87.44;99400.91;4986964;28;20030;-72
2023/10/28 11:06:26;;;;;;;12.48;1.67;;;;;;;13.60;89.08;99387.28;4973434;28;20428;-71
2023/10/28 11:08:52;;;;;;;13.90;1.52;;;;;;;13.71;85.59;99389.22;4986165;28;20040;-71
2023/10/28 11:11:18;;;;;;;11.65;1.92;;;;;;;13.69;89.39;99391.19;4983281;28;20039;-71
2023/10/28 11:13:44;;;;;;;16.42;1.73;;;;;;;13.60;86.51;99382.06;4970871;28;20500;-71
2023/10/28 11:16:30;;;;;;;10.40;2.00;;;;;;;13.54;86.16;99385.47;4988771;28;20061;-71
2023/10/28 11:18:56;;;;;;;13.48;1.90;;;;;;;13.69;85.75;99375.56;4967205;28;20246;-72
2023/10/28 11:21:26;;;;;;;7.00;1.50;;;;;;;13.56;86.92;99384.28;4969844;28;20049;-71
2023/10/28 11:23:54;;;;;;;7.53;1.50;;;;;;;13.67;87.67;99380.19;4971670;28;20034;-72
2023/10/28 11:26:20;;;;;;;14.70;2.13;;;;;;;13.80;84.94;99377.50;4984502;28;20042;-71
2023/10/28 11:28:45;;;;;;;20.08;2.75;;;;;;;13.79;85.30;99383.72;4961725;28;20034;-71
2023/10/28 11:31:11;;;;;;;10.02;1.58;;;;;;;13.62;85.41;99383.44;4982341;28;20145;-71